Nearby METAR Reports

 

KSJC - San Jose, California, USA
Distance from station: NE 9mi, 14km
Updated: Thu, 02-Dec-2021 12:53pm PST
Mostly cloudy
Mostly cloudy
 Wind from calm
Wind: Calm
Temperature: 66°F , 19°C
Dew Point: 45°F , 7°C
Humidity: 46%
Barometer: 30.08 inHg , 1018.6 hPa
Clouds: Mostly cloudy
Visibility: 10 miles , 16 km
Cloud details: Partly cloudy 10000 ft
Mostly cloudy 16000 ft
Mostly cloudy 20000 ft
2021/12/02 20:53 KSJC 022053Z 00000KT 10SM SCT100 BKN160 BKN200 19/07 A3008 RMK AO2 SLP185 VIRGA DSNT SE T01940072 58018
KNUQ - Moffett Nas/Mtn, California, USA
Distance from station: N 9mi, 14km
Updated: Thu, 02-Dec-2021 1:15pm PST
Haze, Clear
Haze, Clear
 Wind from N
Wind: N 5 mph , 7 km/h
Temperature: 64°F , 18°C
Dew Point: 52°F , 11°C
Humidity: 64%
Barometer: 30.08 inHg , 1018.6 hPa
Summary: Haze
Clouds: Clear
Visibility: 6 miles , 10 km
2021/12/02 21:15 KNUQ 022115Z AUTO 35004KT 6SM HZ CLR 18/11 A3008 RMK AO2
 
KPAO - Palo Alto, California, USA
Distance from station: NNW 14mi, 23km
Updated: Thu, 02-Dec-2021 11:47am PST
NOT Current
Partly cloudy
Partly cloudy
 Wind from N
Wind: N 5 mph , 7 km/h
Temperature: 59°F , 15°C
Dew Point: 54°F , 12°C
Humidity: 82%
Barometer: 30.11 inHg , 1019.6 hPa
Clouds: Partly cloudy
Visibility: 10 miles , 16 km
Cloud details: Partly cloudy 20000 ft
2021/12/02 19:47 KPAO 021947Z 01004KT 10SM SCT200 15/12 A3011
KRHV - San Jose/Reid, California, USA
Distance from station: ENE 12mi, 19km
Updated: Thu, 02-Dec-2021 12:50pm PST
Mostly cloudy
Mostly cloudy
 Wind from calm
Wind: Calm
Temperature: 66°F , 19°C
Dew Point: 46°F , 8°C
Humidity: 49%
Barometer: 30.09 inHg , 1019 hPa
Clouds: Mostly cloudy
Visibility: 10 miles , 16 km
Cloud details: Few Clouds 10000 ft
Mostly cloudy 16000 ft
2021/12/02 20:50 KRHV 022050Z 00000KT 10SM FEW100 BKN160 19/08 A3009
 
KOAK - Oakland, California, USA
Distance from station: NNW 31mi, 50km
Updated: Thu, 02-Dec-2021 12:53pm PST
Haze, Mostly cloudy
Haze, Mostly cloudy
 Wind from W
Wind: W 7 mph , 11 km/h
Temperature: 63°F , 17°C
Dew Point: 52°F , 11°C
Humidity: 68%
Barometer: 30.09 inHg , 1019 hPa
Summary: Haze
Clouds: Mostly cloudy
Visibility: 5 miles , 8 km
Cloud details: Mostly cloudy 20000 ft
2021/12/02 20:53 KOAK 022053Z 28006KT 5SM HZ BKN200 17/11 A3009 RMK AO2 SLP189 T01720111 58019
KSQL - San Carlos Airpo, California, USA
Distance from station: NW 21mi, 34km
Updated: Thu, 02-Dec-2021 12:47pm PST
Haze, Partly cloudy
Haze, Partly cloudy
 Wind from calm
Wind: Calm
Temperature: 61°F , 16°C
Dew Point: 55°F , 13°C
Humidity: 83%
Barometer: 30.10 inHg , 1019.3 hPa
Summary: Haze
Clouds: Partly cloudy
Visibility: 5 miles , 8 km
Cloud details: Partly cloudy 20000 ft
2021/12/02 20:47 KSQL 022047Z 00000KT 5SM HZ SCT200 16/13 A3010
 
KSFO - San Francisco, California, USA
Distance from station: NW 30mi, 49km
Updated: Thu, 02-Dec-2021 12:56pm PST
Haze, Mostly cloudy
Haze, Mostly cloudy
 Wind from ENE
Wind: ENE 3 mph , 6 km/h
Temperature: 61°F , 16°C
Dew Point: 54°F , 12°C
Humidity: 77%
Barometer: 30.08 inHg , 1018.6 hPa
Summary: Haze
Clouds: Mostly cloudy
Visibility: 4 miles , 6 km
Cloud details: Few Clouds 300 ft
Mostly cloudy 20000 ft
2021/12/02 20:56 KSFO 022056Z 06003KT 4SM HZ FEW003 BKN200 16/12 A3008 RMK AO2 SLP186 T01610122 58018
KE16 - San Martin, California, USA
Distance from station: ESE 27mi, 43km
Updated: Thu, 02-Dec-2021 1:15pm PST
Clear
Clear
 Wind from calm
Wind: Calm
Temperature: 68°F , 20°C
Dew Point: 45°F , 7°C
Humidity: 43%
Barometer: 30.09 inHg , 1019 hPa
Clouds: Clear
Visibility: 10 miles , 16 km
2021/12/02 21:15 KE16 022115Z AUTO 00000KT 10SM CLR 20/07 A3009 RMK AO2
 
KWVI - Watsonville, California, USA
Distance from station: SSE 27mi, 44km
Updated: Thu, 02-Dec-2021 12:53pm PST
Clear
Clear
 Wind from varies
Wind: varies 7 mph , 11 km/h
Temperature: 61°F , 16°C
Dew Point: 52°F , 11°C
Humidity: 72%
Barometer: 30.10 inHg , 1019.3 hPa
Clouds: Clear
Visibility: 10 miles , 16 km
2021/12/02 20:53 KWVI 022053Z AUTO VRB06KT 10SM CLR 16/11 A3010 RMK AO2 SLP194 T01560111 58013
KHAF - Half Moon Bay, California, USA
Distance from station: WNW 31mi, 50km
Updated: Thu, 02-Dec-2021 1:15pm PST
Clear
Clear
 Wind from S
Wind: S 8 mph , 13 km/h
Temperature: 55°F , 13°C
Dew Point: 54°F , 12°C
Humidity: 94%
Barometer: 30.09 inHg , 1019 hPa
Clouds: Clear
Visibility: 9 miles , 14 km
2021/12/02 21:15 KHAF 022115Z AUTO 18007KT 9SM CLR 13/12 A3009 RMK AO2
 
KHWD - Hayward, California, USA
Distance from station: N 28mi, 44km
Updated: Thu, 02-Dec-2021 12:54pm PST
Haze, Clear
Haze, Clear
 Wind from W
Wind: W 5 mph , 7 km/h
Temperature: 63°F , 17°C
Dew Point: 52°F , 11°C
Humidity: 68%
Barometer: 30.08 inHg , 1018.6 hPa
Summary: Haze
Clouds: Clear
Visibility: 4 miles , 6 km
2021/12/02 20:54 KHWD 022054Z 26004KT 4SM HZ CLR 17/11 A3008 RMK AO2 SLP196 T01720106 58019
KLVK - Livermore, California, USA
Distance from station: NNE 31mi, 51km
Updated: Thu, 02-Dec-2021 12:53pm PST
Haze, Clear
Haze, Clear
 Wind from E
Wind: E 9 mph , 15 km/h
Temperature: 64°F , 18°C
Dew Point: 55°F , 13°C
Humidity: 73%
Barometer: 30.09 inHg , 1019 hPa
Summary: Haze
Clouds: Clear
Visibility: 6 miles , 10 km
2021/12/02 20:53 KLVK 022053Z 09008KT 6SM HZ CLR 18/13 A3009 RMK AO2 SLP186 T01830133 58019